createdAt,value
2023-04-22T00:00:01.087Z,0.00
2023-04-22T00:01:01.072Z,0.00
2023-04-22T00:02:01.045Z,0.00
2023-04-22T00:03:01.236Z,0.00
2023-04-22T00:04:01.478Z,0.00
2023-04-22T00:05:01.349Z,0.00
2023-04-22T00:06:01.051Z,0.00
2023-04-22T00:07:00.997Z,0.00
2023-04-22T00:08:00.981Z,0.00
2023-04-22T00:09:01.022Z,0.00
2023-04-22T00:10:01.013Z,0.00
2023-04-22T00:11:00.963Z,0.00
2023-04-22T00:12:00.958Z,0.00
2023-04-22T00:13:00.977Z,0.00
2023-04-22T00:14:00.935Z,0.00
2023-04-22T00:15:00.925Z,0.00
2023-04-22T00:16:01.054Z,0.00
2023-04-22T00:17:00.901Z,0.00
2023-04-22T00:18:00.954Z,0.00
2023-04-22T00:19:00.886Z,0.00
2023-04-22T00:20:00.866Z,0.00
2023-04-22T00:21:00.883Z,0.00
2023-04-22T00:22:00.857Z,0.00
2023-04-22T00:23:00.843Z,0.00
2023-04-22T00:24:00.872Z,0.00
2023-04-22T00:25:00.832Z,0.00
2023-04-22T00:26:00.806Z,0.00
2023-04-22T00:27:00.825Z,0.00
2023-04-22T00:28:00.792Z,0.00
2023-04-22T00:29:00.781Z,0.00
2023-04-22T00:30:00.766Z,0.00
2023-04-22T00:31:00.788Z,0.00
2023-04-22T00:32:00.760Z,0.00
2023-04-22T00:33:00.924Z,0.00
2023-04-22T00:34:00.765Z,0.00
2023-04-22T00:35:00.724Z,0.00
2023-04-22T00:36:00.707Z,0.00
2023-04-22T00:37:00.696Z,0.00
2023-04-22T00:38:00.710Z,0.00
2023-04-22T00:39:00.736Z,0.00
2023-04-22T00:40:00.691Z,0.00
2023-04-22T00:41:00.662Z,0.00
2023-04-22T00:42:00.655Z,0.00
2023-04-22T00:43:00.667Z,0.00
2023-04-22T00:44:00.656Z,0.00
2023-04-22T00:45:00.666Z,0.00
2023-04-22T00:46:00.631Z,0.00
2023-04-22T00:47:00.735Z,0.00
2023-04-22T00:48:00.679Z,0.00
2023-04-22T00:49:00.587Z,0.00
2023-04-22T00:50:00.607Z,0.00
2023-04-22T00:51:00.562Z,0.00
2023-04-22T00:52:00.551Z,0.00
2023-04-22T00:53:00.552Z,0.00
2023-04-22T00:54:00.582Z,0.00
2023-04-22T00:55:00.520Z,0.00
2023-04-22T00:56:00.527Z,0.00
2023-04-22T00:57:00.558Z,0.00
2023-04-22T00:58:00.532Z,0.00
2023-04-22T00:59:00.505Z,0.00
2023-04-22T01:00:00.471Z,0.00
2023-04-22T01:01:00.473Z,0.00
2023-04-22T01:02:00.488Z,0.00
2023-04-22T01:03:00.574Z,0.00
2023-04-22T01:04:00.745Z,0.00
2023-04-22T01:05:00.462Z,0.00
2023-04-22T01:06:00.423Z,0.00
2023-04-22T01:07:00.415Z,0.00
2023-04-22T01:08:00.399Z,0.00
2023-04-22T01:09:00.391Z,0.00
2023-04-22T01:10:00.411Z,0.00
2023-04-22T01:11:00.381Z,0.00
2023-04-22T01:12:00.367Z,0.00
2023-04-22T01:13:00.360Z,0.00
2023-04-22T01:14:00.349Z,0.00
2023-04-22T01:15:02.271Z,0.00
2023-04-22T01:16:00.334Z,0.00
2023-04-22T01:17:00.488Z,0.00
2023-04-22T01:18:00.367Z,0.00
2023-04-22T01:19:00.298Z,0.00
2023-04-22T01:20:00.312Z,0.00
2023-04-22T01:21:00.305Z,0.00
2023-04-22T01:22:00.265Z,0.00
2023-04-22T01:23:00.275Z,0.00
2023-04-22T01:24:00.274Z,0.00
2023-04-22T01:25:00.290Z,0.00
2023-04-22T01:26:00.238Z,0.00
2023-04-22T01:27:00.230Z,0.00
2023-04-22T01:28:00.215Z,0.00
2023-04-22T01:29:00.220Z,0.00
2023-04-22T01:30:00.216Z,0.00
2023-04-22T01:31:00.186Z,0.00
2023-04-22T01:32:00.273Z,0.00
2023-04-22T01:33:00.216Z,0.00
2023-04-22T01:34:00.170Z,0.00
2023-04-22T01:35:00.153Z,0.00
2023-04-22T01:36:00.159Z,0.00
2023-04-22T01:37:00.127Z,0.00
2023-04-22T01:38:00.130Z,0.00
2023-04-22T01:39:00.121Z,0.00
2023-04-22T01:40:00.101Z,0.00
2023-04-22T01:41:00.136Z,0.00
2023-04-22T01:42:00.080Z,0.00
2023-04-22T01:43:00.068Z,0.00
2023-04-22T01:44:00.052Z,0.00
2023-04-22T01:45:00.070Z,0.00
2023-04-22T01:46:00.161Z,0.00
2023-04-22T01:47:00.024Z,0.00
2023-04-22T01:48:00.060Z,0.00
2023-04-22T01:49:00.011Z,0.00
2023-04-22T01:50:00.000Z,0.00
2023-04-22T01:51:00.017Z,0.00
2023-04-22T01:52:00.056Z,0.00
2023-04-22T01:52:59.972Z,0.00
2023-04-22T01:53:59.968Z,0.00
2023-04-22T01:54:59.952Z,0.00
2023-04-22T01:55:59.992Z,0.00
2023-04-22T01:57:00.001Z,0.00
2023-04-22T01:57:59.923Z,0.00
2023-04-22T01:58:59.951Z,0.00
2023-04-22T01:59:59.947Z,0.00
2023-04-22T02:00:59.949Z,0.00
2023-04-22T02:02:00.112Z,0.00
2023-04-22T02:02:59.971Z,0.00
2023-04-22T02:03:59.867Z,0.00
2023-04-22T02:04:59.945Z,0.00
2023-04-22T02:05:59.888Z,0.00
2023-04-22T02:06:59.824Z,0.00
2023-04-22T02:07:59.834Z,0.00
2023-04-22T02:08:59.810Z,0.00
2023-04-22T02:09:59.813Z,0.00
2023-04-22T02:11:00.833Z,0.00
2023-04-22T02:11:59.784Z,0.00
2023-04-22T02:12:59.840Z,0.00
2023-04-22T02:13:59.757Z,0.00
2023-04-22T02:14:59.779Z,0.00
2023-04-22T02:15:59.813Z,0.00
2023-04-22T02:16:59.735Z,0.00
2023-04-22T02:17:59.719Z,0.00
2023-04-22T02:18:59.718Z,0.00
2023-04-22T02:19:59.755Z,0.00
2023-04-22T02:20:59.722Z,0.00
2023-04-22T02:21:59.702Z,0.00
2023-04-22T02:22:59.688Z,0.00
2023-04-22T02:23:59.674Z,0.00
2023-04-22T02:24:59.655Z,0.00
2023-04-22T02:25:59.640Z,0.00
2023-04-22T02:26:59.679Z,0.00
2023-04-22T02:27:59.616Z,0.00
2023-04-22T02:28:59.612Z,0.00
2023-04-22T02:29:59.600Z,0.00
2023-04-22T02:30:59.639Z,0.00
2023-04-22T02:31:59.594Z,0.00
2023-04-22T02:32:59.643Z,0.00
2023-04-22T02:33:59.579Z,0.00
2023-04-22T02:34:59.575Z,0.00
2023-04-22T02:35:59.554Z,0.00
2023-04-22T02:36:59.557Z,0.00
2023-04-22T02:37:59.543Z,0.00
2023-04-22T02:38:59.540Z,0.00
2023-04-22T02:39:59.504Z,0.00
2023-04-22T02:41:00.488Z,0.00
2023-04-22T02:42:00.486Z,0.00
2023-04-22T02:42:59.470Z,0.00
2023-04-22T02:43:59.503Z,0.00
2023-04-22T02:44:59.459Z,0.00
2023-04-22T02:45:59.446Z,0.00
2023-04-22T02:46:59.659Z,0.00
2023-04-22T02:47:59.529Z,0.00
2023-04-22T02:48:59.453Z,0.00
2023-04-22T02:49:59.407Z,0.00
2023-04-22T02:50:59.417Z,0.00
2023-04-22T02:51:59.457Z,0.00
2023-04-22T02:52:59.378Z,0.00
2023-04-22T02:53:59.368Z,0.00
2023-04-22T02:54:59.375Z,0.00
2023-04-22T02:55:59.436Z,0.00
2023-04-22T02:57:31.266Z,0.00
2023-04-22T02:57:59.341Z,0.00
2023-04-22T02:58:59.309Z,0.00
2023-04-22T03:00:00.323Z,0.00
2023-04-22T03:00:59.341Z,0.00
2023-04-22T03:01:59.383Z,0.00
2023-04-22T03:02:59.389Z,0.00
2023-04-22T03:03:59.696Z,0.00
2023-04-22T03:04:59.273Z,0.00
2023-04-22T03:05:59.272Z,0.00
2023-04-22T03:06:59.234Z,0.00
2023-04-22T03:07:59.229Z,0.00
2023-04-22T03:08:59.236Z,0.00
2023-04-22T03:09:59.214Z,0.00
2023-04-22T03:10:59.201Z,0.00
2023-04-22T03:11:59.204Z,0.00
2023-04-22T03:12:59.187Z,0.00
2023-04-22T03:13:59.201Z,0.00
2023-04-22T03:14:59.164Z,0.00
2023-04-22T03:15:59.259Z,0.00
2023-04-22T03:16:59.195Z,0.00
2023-04-22T03:17:59.221Z,0.00
2023-04-22T03:18:59.122Z,0.00
2023-04-22T03:19:59.124Z,0.00
2023-04-22T03:20:59.129Z,0.00
2023-04-22T03:21:59.090Z,0.00
2023-04-22T03:22:59.084Z,0.00
2023-04-22T03:23:59.070Z,0.00
2023-04-22T03:24:59.076Z,0.00
2023-04-22T03:25:59.084Z,0.00
2023-04-22T03:26:59.070Z,0.00
2023-04-22T03:27:59.034Z,0.00
2023-04-22T03:28:59.013Z,0.00
2023-04-22T03:29:59.034Z,0.00
2023-04-22T03:30:59.007Z,0.00
2023-04-22T03:31:59.055Z,0.00
2023-04-22T03:32:59.011Z,0.00
2023-04-22T03:33:58.976Z,0.00
2023-04-22T03:34:58.979Z,0.00
2023-04-22T03:35:58.952Z,0.00
2023-04-22T03:36:58.984Z,0.00
2023-04-22T03:37:58.960Z,0.00
2023-04-22T03:38:58.926Z,0.00
2023-04-22T03:39:58.940Z,0.00
2023-04-22T03:40:58.905Z,0.00
2023-04-22T03:41:59.890Z,0.00
2023-04-22T03:42:58.893Z,0.00
2023-04-22T03:44:01.013Z,0.00
2023-04-22T03:44:59.877Z,0.00
2023-04-22T03:45:58.909Z,0.00
2023-04-22T03:46:58.864Z,0.00
2023-04-22T03:47:58.902Z,0.00
2023-04-22T03:48:58.828Z,0.00
2023-04-22T03:49:58.832Z,0.00
2023-04-22T03:50:58.806Z,0.00
2023-04-22T03:51:58.811Z,0.00
2023-04-22T03:52:58.780Z,0.00
2023-04-22T03:53:58.791Z,0.00
2023-04-22T03:54:58.796Z,0.00
2023-04-22T03:55:58.754Z,0.00
2023-04-22T03:56:58.735Z,0.00
2023-04-22T03:57:58.761Z,0.00
2023-04-22T03:58:58.718Z,0.00
2023-04-22T03:59:58.739Z,0.00
2023-04-22T04:00:58.689Z,0.00
2023-04-22T04:01:58.704Z,0.00
2023-04-22T04:02:58.794Z,0.00
2023-04-22T04:03:59.050Z,5.62
2023-04-22T04:04:58.837Z,5.62
2023-04-22T04:05:58.805Z,5.62
2023-04-22T04:06:59.672Z,5.62
2023-04-22T04:07:58.634Z,11.25
2023-04-22T04:08:58.664Z,11.25
2023-04-22T04:09:58.638Z,11.25
2023-04-22T04:10:58.619Z,16.88
2023-04-22T04:11:58.617Z,16.88
2023-04-22T04:12:58.601Z,22.50
2023-04-22T04:13:58.580Z,22.50
2023-04-22T04:14:58.593Z,22.50
2023-04-22T04:15:58.619Z,28.12
2023-04-22T04:16:58.564Z,28.12
2023-04-22T04:17:58.588Z,33.75
2023-04-22T04:18:58.552Z,33.75
2023-04-22T04:19:58.568Z,33.75
2023-04-22T04:20:58.523Z,39.38
2023-04-22T04:21:58.499Z,39.38
2023-04-22T04:22:58.507Z,39.38
2023-04-22T04:23:58.512Z,39.38
2023-04-22T04:24:58.466Z,45.00
2023-04-22T04:25:58.465Z,39.38
2023-04-22T04:26:58.461Z,39.38
2023-04-22T04:27:58.457Z,39.38
2023-04-22T04:28:58.456Z,39.38
2023-04-22T04:29:58.447Z,39.38
2023-04-22T04:30:58.427Z,39.38
2023-04-22T04:31:58.405Z,39.38
2023-04-22T04:32:58.454Z,39.38
2023-04-22T04:33:58.373Z,45.00
2023-04-22T04:34:58.412Z,50.62
2023-04-22T04:35:58.382Z,50.62
2023-04-22T04:36:58.355Z,56.25
2023-04-22T04:37:58.356Z,61.88
2023-04-22T04:38:58.385Z,67.50
2023-04-22T04:39:58.343Z,73.12
2023-04-22T04:40:58.338Z,78.75
2023-04-22T04:41:58.418Z,90.00
2023-04-22T04:42:58.310Z,112.50
2023-04-22T04:43:58.282Z,129.38
2023-04-22T04:44:58.289Z,219.38
2023-04-22T04:45:58.257Z,393.75
2023-04-22T04:46:58.338Z,489.38
2023-04-22T04:47:58.308Z,427.50
2023-04-22T04:48:58.263Z,354.38
2023-04-22T04:49:58.226Z,258.75
2023-04-22T04:50:58.232Z,196.88
2023-04-22T04:51:58.196Z,185.62
2023-04-22T04:52:58.249Z,191.25
2023-04-22T04:53:58.205Z,202.50
2023-04-22T04:54:58.214Z,208.12
2023-04-22T04:55:58.164Z,219.38
2023-04-22T04:56:58.153Z,236.25
2023-04-22T04:57:58.139Z,253.12
2023-04-22T04:58:58.170Z,258.75
2023-04-22T04:59:58.131Z,264.38
2023-04-22T05:00:58.112Z,275.62
2023-04-22T05:01:58.152Z,292.50
2023-04-22T05:02:58.217Z,303.75
2023-04-22T05:03:58.188Z,326.25
2023-04-22T05:04:58.103Z,348.75
2023-04-22T05:05:58.115Z,365.62
2023-04-22T05:06:58.082Z,388.12
2023-04-22T05:07:59.049Z,438.75
2023-04-22T05:08:58.054Z,483.75
2023-04-22T05:09:59.058Z,528.75
2023-04-22T05:10:58.042Z,585.00
2023-04-22T05:11:58.024Z,624.38
2023-04-22T05:12:57.998Z,663.75
2023-04-22T05:13:57.989Z,691.88
2023-04-22T05:14:57.982Z,725.62
2023-04-22T05:15:57.989Z,748.12
2023-04-22T05:16:57.981Z,810.00
2023-04-22T05:17:57.999Z,894.38
2023-04-22T05:18:57.977Z,1040.62
2023-04-22T05:19:57.934Z,1192.50
2023-04-22T05:20:57.922Z,1378.12
2023-04-22T05:21:57.930Z,1665.00
2023-04-22T05:22:57.892Z,1681.88
2023-04-22T05:23:57.923Z,1788.75
2023-04-22T05:24:57.894Z,1901.25
2023-04-22T05:25:57.866Z,1833.75
2023-04-22T05:26:57.867Z,1687.50
2023-04-22T05:27:57.877Z,1710.00
2023-04-22T05:28:57.866Z,1620.00
2023-04-22T05:29:57.834Z,1755.00
2023-04-22T05:30:57.840Z,1755.00
2023-04-22T05:31:57.873Z,1586.25
2023-04-22T05:32:57.839Z,1676.25
2023-04-22T05:33:57.799Z,1867.50
2023-04-22T05:34:57.822Z,1845.00
2023-04-22T05:35:57.783Z,1507.50
2023-04-22T05:36:57.810Z,2008.12
2023-04-22T05:37:57.785Z,2446.88
2023-04-22T05:38:57.749Z,2244.38
2023-04-22T05:39:57.742Z,2221.88
2023-04-22T05:40:57.745Z,2002.50
2023-04-22T05:41:57.706Z,2002.50
2023-04-22T05:42:58.717Z,1918.12
2023-04-22T05:43:57.731Z,1867.50
2023-04-22T05:44:57.681Z,1704.38
2023-04-22T05:45:57.720Z,1777.50
2023-04-22T05:46:57.658Z,1923.75
2023-04-22T05:47:57.748Z,1929.38
2023-04-22T05:48:57.675Z,1935.00
2023-04-22T05:49:57.629Z,1833.75
2023-04-22T05:50:57.626Z,1822.50
2023-04-22T05:51:57.613Z,1603.12
2023-04-22T05:52:57.618Z,1591.88
2023-04-22T05:53:57.614Z,1901.25
2023-04-22T05:54:57.581Z,1704.38
2023-04-22T05:55:57.575Z,2278.12
2023-04-22T05:56:57.586Z,2806.88
2023-04-22T05:57:57.557Z,2812.50
2023-04-22T05:58:57.547Z,2700.00
2023-04-22T05:59:57.562Z,2733.75
2023-04-22T06:00:57.557Z,2818.12
2023-04-22T06:01:57.611Z,2705.62
2023-04-22T06:02:57.687Z,2441.25
2023-04-22T06:03:57.851Z,2615.62
2023-04-22T06:04:57.943Z,2626.88
2023-04-22T06:05:57.604Z,2221.88
2023-04-22T06:06:57.493Z,2441.25
2023-04-22T06:07:57.469Z,1614.38
2023-04-22T06:08:57.449Z,1558.12
2023-04-22T06:10:04.658Z,1586.25
2023-04-22T06:10:59.488Z,1653.75
2023-04-22T06:11:57.441Z,1873.12
2023-04-22T06:12:57.425Z,2064.38
2023-04-22T06:13:57.405Z,1918.12
2023-04-22T06:14:57.402Z,2030.62
2023-04-22T06:15:57.426Z,2126.25
2023-04-22T06:16:57.391Z,2261.25
2023-04-22T06:17:57.441Z,2323.12
2023-04-22T06:18:57.354Z,2458.12
2023-04-22T06:19:57.351Z,2244.38
2023-04-22T06:20:57.333Z,2514.38
2023-04-22T06:21:57.324Z,2013.75
2023-04-22T06:22:57.326Z,1923.75
2023-04-22T06:23:57.310Z,2210.62
2023-04-22T06:24:57.320Z,2154.38
2023-04-22T06:25:57.298Z,1867.50
2023-04-22T06:26:57.283Z,2013.75
2023-04-22T06:27:57.267Z,1901.25
2023-04-22T06:28:57.275Z,1704.38
2023-04-22T06:29:57.281Z,1608.75
2023-04-22T06:30:57.247Z,1878.75
2023-04-22T06:31:57.235Z,1524.38
2023-04-22T06:32:57.249Z,1271.25
2023-04-22T06:33:57.254Z,1485.00
2023-04-22T06:34:57.226Z,1642.50
2023-04-22T06:35:57.235Z,1423.12
2023-04-22T06:36:57.193Z,1344.38
2023-04-22T06:37:57.196Z,1288.12
2023-04-22T06:38:57.176Z,1282.50
2023-04-22T06:39:57.160Z,1181.25
2023-04-22T06:40:57.140Z,1186.88
2023-04-22T06:41:57.163Z,1260.00
2023-04-22T06:42:57.125Z,1338.75
2023-04-22T06:43:57.127Z,1389.38
2023-04-22T06:44:57.119Z,1445.62
2023-04-22T06:45:57.116Z,1496.25
2023-04-22T06:46:58.089Z,1428.75
2023-04-22T06:47:58.110Z,1406.25
2023-04-22T06:48:57.126Z,1507.50
2023-04-22T06:49:57.057Z,1563.75
2023-04-22T06:50:57.046Z,1580.62
2023-04-22T06:51:57.053Z,1569.38
2023-04-22T06:52:57.033Z,1518.75
2023-04-22T06:53:57.033Z,1507.50
2023-04-22T06:54:57.049Z,1496.25
2023-04-22T06:55:57.011Z,1513.12
2023-04-22T06:56:56.990Z,1530.00
2023-04-22T06:57:56.993Z,1693.12
2023-04-22T06:58:56.972Z,1811.25
2023-04-22T06:59:56.964Z,1918.12
2023-04-22T07:00:56.952Z,1985.62
2023-04-22T07:01:56.996Z,2070.00
2023-04-22T07:02:57.031Z,2238.75
2023-04-22T07:03:57.033Z,2340.00
2023-04-22T07:04:56.937Z,2531.25
2023-04-22T07:05:56.924Z,2553.75
2023-04-22T07:06:56.891Z,2671.88
2023-04-22T07:07:56.891Z,2621.25
2023-04-22T07:08:56.886Z,2587.50
2023-04-22T07:09:56.887Z,2531.25
2023-04-22T07:10:56.850Z,2576.25
2023-04-22T07:11:56.856Z,2542.50
2023-04-22T07:12:56.860Z,2503.12
2023-04-22T07:13:56.830Z,2385.00
2023-04-22T07:14:56.814Z,2328.75
2023-04-22T07:15:56.837Z,2407.50
2023-04-22T07:16:56.806Z,2649.38
2023-04-22T07:17:56.857Z,2908.12
2023-04-22T07:18:56.764Z,2941.88
2023-04-22T07:19:56.808Z,2885.62
2023-04-22T07:20:56.767Z,2863.12
2023-04-22T07:21:56.749Z,2823.75
2023-04-22T07:22:56.769Z,2756.25
2023-04-22T07:23:56.766Z,2835.00
2023-04-22T07:24:56.722Z,2930.62
2023-04-22T07:25:56.710Z,3054.38
2023-04-22T07:26:56.734Z,3060.00
2023-04-22T07:27:56.729Z,3189.38
2023-04-22T07:28:56.737Z,3211.88
2023-04-22T07:29:56.678Z,3150.00
2023-04-22T07:30:56.673Z,3335.62
2023-04-22T07:31:56.759Z,3268.12
2023-04-22T07:32:56.746Z,3144.38
2023-04-22T07:33:56.644Z,3003.75
2023-04-22T07:34:56.635Z,3009.38
2023-04-22T07:35:56.634Z,3166.88
2023-04-22T07:36:56.618Z,3217.50
2023-04-22T07:37:56.640Z,3296.25
2023-04-22T07:38:56.611Z,3273.75
2023-04-22T07:39:56.580Z,3251.25
2023-04-22T07:40:56.579Z,3178.12
2023-04-22T07:41:56.604Z,3183.75
2023-04-22T07:42:56.579Z,3144.38
2023-04-22T07:43:56.553Z,3048.75
2023-04-22T07:44:56.575Z,2998.12
2023-04-22T07:45:56.577Z,2970.00
2023-04-22T07:46:56.523Z,2233.12
2023-04-22T07:47:56.544Z,2913.75
2023-04-22T07:48:56.490Z,2812.50
2023-04-22T07:49:56.484Z,2733.75
2023-04-22T07:50:56.501Z,2649.38
2023-04-22T07:51:56.471Z,2643.75
2023-04-22T07:52:56.464Z,2700.00
2023-04-22T07:53:56.460Z,2733.75
2023-04-22T07:54:56.454Z,2801.25
2023-04-22T07:55:56.457Z,2868.75
2023-04-22T07:56:56.441Z,2840.62
2023-04-22T07:57:56.420Z,2795.62
2023-04-22T07:58:56.413Z,2677.50
2023-04-22T07:59:56.399Z,2621.25
2023-04-22T08:00:56.397Z,2722.50
2023-04-22T08:01:56.418Z,2655.00
2023-04-22T08:02:56.535Z,2542.50
2023-04-22T08:03:56.643Z,2486.25
2023-04-22T08:04:56.427Z,2340.00
2023-04-22T08:05:56.376Z,2300.62
2023-04-22T08:06:56.356Z,2188.12
2023-04-22T08:07:56.345Z,2064.38
2023-04-22T08:08:56.318Z,2221.88
2023-04-22T08:09:56.299Z,2188.12
2023-04-22T08:10:56.320Z,2092.50
2023-04-22T08:11:56.290Z,2070.00
2023-04-22T08:12:56.296Z,2098.12
2023-04-22T08:13:56.270Z,1935.00
2023-04-22T08:14:56.258Z,1794.38
2023-04-22T08:15:56.313Z,1575.00
2023-04-22T08:16:56.258Z,1586.25
2023-04-22T08:17:56.325Z,1558.12
2023-04-22T08:18:56.265Z,1366.88
2023-04-22T08:19:56.217Z,1321.88
2023-04-22T08:20:56.208Z,1366.88
2023-04-22T08:21:56.204Z,1456.88
2023-04-22T08:22:56.179Z,1462.50
2023-04-22T08:23:56.195Z,1524.38
2023-04-22T08:24:56.174Z,1546.88
2023-04-22T08:25:56.158Z,1530.00
2023-04-22T08:26:56.178Z,1507.50
2023-04-22T08:27:56.149Z,1558.12
2023-04-22T08:28:56.133Z,1558.12
2023-04-22T08:29:56.141Z,1631.25
2023-04-22T08:30:56.150Z,1670.62
2023-04-22T08:31:56.138Z,1760.62
2023-04-22T08:32:56.186Z,1822.50
2023-04-22T08:33:56.083Z,1929.38
2023-04-22T08:35:03.952Z,2019.38
2023-04-22T08:35:58.081Z,2205.00
2023-04-22T08:36:56.058Z,2115.00
2023-04-22T08:37:56.065Z,2002.50
2023-04-22T08:38:56.067Z,1861.88
2023-04-22T08:39:56.037Z,1777.50
2023-04-22T08:40:56.028Z,1794.38
2023-04-22T08:41:56.022Z,1788.75
2023-04-22T08:42:56.050Z,1749.38
2023-04-22T08:43:56.020Z,1715.62
2023-04-22T08:44:56.001Z,1648.12
2023-04-22T08:45:55.979Z,1541.25
2023-04-22T08:46:56.118Z,1530.00
2023-04-22T08:47:56.024Z,1496.25
2023-04-22T08:48:55.954Z,1569.38
2023-04-22T08:49:55.955Z,1473.75
2023-04-22T08:50:55.938Z,1321.88
2023-04-22T08:51:55.928Z,1316.25
2023-04-22T08:52:55.950Z,1333.12
2023-04-22T08:53:55.915Z,1310.62
2023-04-22T08:54:55.930Z,1411.88
2023-04-22T08:55:55.882Z,1400.62
2023-04-22T08:57:27.798Z,1350.00
2023-04-22T08:57:55.888Z,1248.75
2023-04-22T08:58:55.855Z,1119.38
2023-04-22T08:59:55.854Z,1316.25
2023-04-22T09:00:55.849Z,1338.75
2023-04-22T09:01:55.989Z,1411.88
2023-04-22T09:02:55.993Z,1434.38
2023-04-22T09:03:55.978Z,1456.88
2023-04-22T09:04:55.805Z,1485.00
2023-04-22T09:05:55.798Z,1507.50
2023-04-22T09:06:55.837Z,1440.00
2023-04-22T09:07:55.770Z,1541.25
2023-04-22T09:08:55.781Z,1597.50
2023-04-22T09:09:55.763Z,1625.62
2023-04-22T09:10:55.760Z,1687.50
2023-04-22T09:11:55.734Z,1687.50
2023-04-22T09:12:55.723Z,1653.75
2023-04-22T09:13:55.710Z,1710.00
2023-04-22T09:14:55.700Z,1710.00
2023-04-22T09:15:57.836Z,1681.88
2023-04-22T09:16:55.710Z,1580.62
2023-04-22T09:17:55.719Z,1524.38
2023-04-22T09:18:55.656Z,1468.12
2023-04-22T09:19:55.648Z,1524.38
2023-04-22T09:20:55.657Z,1423.12
2023-04-22T09:21:55.707Z,1563.75
2023-04-22T09:22:55.637Z,1760.62
2023-04-22T09:23:55.606Z,1895.62
2023-04-22T09:24:55.606Z,1991.25
2023-04-22T09:25:55.629Z,2053.12
2023-04-22T09:26:55.600Z,1940.62
2023-04-22T09:27:55.594Z,1749.38
2023-04-22T09:28:55.588Z,1575.00
2023-04-22T09:29:55.584Z,1479.38
2023-04-22T09:30:55.556Z,1361.25
2023-04-22T09:31:55.565Z,1355.62
2023-04-22T09:32:55.620Z,1355.62
2023-04-22T09:33:55.533Z,1265.62
2023-04-22T09:34:55.594Z,1226.25
2023-04-22T09:35:55.606Z,1113.75
2023-04-22T09:36:55.509Z,1085.62
2023-04-22T09:37:55.513Z,1091.25
2023-04-22T09:38:55.515Z,984.38
2023-04-22T09:39:55.458Z,911.25
2023-04-22T09:40:55.470Z,956.25
2023-04-22T09:41:55.446Z,888.75
2023-04-22T09:42:55.436Z,866.25
2023-04-22T09:43:55.454Z,871.88
2023-04-22T09:44:55.429Z,843.75
2023-04-22T09:45:55.432Z,815.62
2023-04-22T09:46:55.411Z,787.50
2023-04-22T09:47:55.449Z,759.38
2023-04-22T09:48:55.412Z,765.00
2023-04-22T09:49:55.372Z,821.25
2023-04-22T09:50:55.371Z,815.62
2023-04-22T09:51:55.352Z,804.38
2023-04-22T09:52:55.349Z,832.50
2023-04-22T09:53:55.439Z,832.50
2023-04-22T09:54:55.327Z,821.25
2023-04-22T09:55:55.322Z,821.25
2023-04-22T09:56:55.318Z,838.12
2023-04-22T09:57:55.295Z,860.62
2023-04-22T09:58:55.303Z,826.88
2023-04-22T09:59:55.279Z,843.75
2023-04-22T10:00:55.295Z,871.88
2023-04-22T10:01:55.285Z,826.88
2023-04-22T10:02:55.350Z,798.75
2023-04-22T10:03:55.254Z,765.00
2023-04-22T10:04:55.232Z,765.00
2023-04-22T10:05:55.218Z,776.25
2023-04-22T10:06:55.267Z,798.75
2023-04-22T10:07:55.234Z,804.38
2023-04-22T10:08:55.258Z,804.38
2023-04-22T10:09:55.201Z,815.62
2023-04-22T10:10:55.177Z,821.25
2023-04-22T10:11:55.203Z,821.25
2023-04-22T10:12:55.169Z,798.75
2023-04-22T10:13:55.144Z,804.38
2023-04-22T10:14:55.157Z,736.88
2023-04-22T10:15:55.148Z,731.25
2023-04-22T10:16:55.161Z,736.88
2023-04-22T10:17:55.158Z,770.62
2023-04-22T10:18:55.100Z,742.50
2023-04-22T10:19:55.087Z,720.00
2023-04-22T10:20:55.092Z,708.75
2023-04-22T10:21:55.072Z,697.50
2023-04-22T10:22:55.076Z,708.75
2023-04-22T10:23:55.065Z,736.88
2023-04-22T10:24:55.061Z,748.12
2023-04-22T10:25:55.052Z,770.62
2023-04-22T10:26:56.800Z,821.25
2023-04-22T10:27:56.013Z,849.38
2023-04-22T10:28:55.019Z,866.25
2023-04-22T10:29:54.982Z,911.25
2023-04-22T10:30:55.006Z,961.88
2023-04-22T10:31:54.975Z,973.12
2023-04-22T10:32:54.982Z,984.38
2023-04-22T10:33:54.996Z,990.00
2023-04-22T10:34:54.947Z,939.38
2023-04-22T10:35:54.935Z,939.38
2023-04-22T10:36:54.921Z,978.75
2023-04-22T10:37:54.926Z,973.12
2023-04-22T10:38:54.904Z,961.88
2023-04-22T10:39:54.939Z,961.88
2023-04-22T10:40:54.884Z,973.12
2023-04-22T10:41:54.877Z,961.88
2023-04-22T10:42:54.857Z,956.25
2023-04-22T10:43:54.960Z,950.62
2023-04-22T10:44:54.869Z,945.00
2023-04-22T10:45:54.856Z,933.75
2023-04-22T10:46:54.827Z,922.50
2023-04-22T10:47:54.852Z,866.25
2023-04-22T10:48:54.804Z,877.50
2023-04-22T10:49:54.800Z,838.12
2023-04-22T10:50:54.830Z,832.50
2023-04-22T10:51:54.802Z,843.75
2023-04-22T10:52:54.770Z,821.25
2023-04-22T10:53:54.759Z,787.50
2023-04-22T10:54:54.761Z,804.38
2023-04-22T10:55:54.747Z,810.00
2023-04-22T10:56:58.193Z,815.62
2023-04-22T10:57:55.717Z,798.75
2023-04-22T10:58:54.717Z,776.25
2023-04-22T10:59:54.721Z,770.62
2023-04-22T11:00:54.716Z,765.00
2023-04-22T11:01:54.743Z,759.38
2023-04-22T11:02:54.732Z,759.38
2023-04-22T11:03:54.784Z,753.75
2023-04-22T11:04:54.664Z,765.00
2023-04-22T11:05:54.673Z,787.50
2023-04-22T11:06:54.686Z,748.12
2023-04-22T11:07:54.618Z,748.12
2023-04-22T11:08:54.615Z,759.38
2023-04-22T11:09:54.629Z,759.38
2023-04-22T11:10:54.595Z,793.12
2023-04-22T11:11:54.634Z,798.75
2023-04-22T11:12:54.601Z,793.12
2023-04-22T11:13:54.577Z,793.12
2023-04-22T11:14:54.592Z,793.12
2023-04-22T11:15:54.600Z,804.38
2023-04-22T11:16:54.556Z,798.75
2023-04-22T11:17:54.552Z,793.12
2023-04-22T11:18:54.531Z,770.62
2023-04-22T11:19:54.514Z,759.38
2023-04-22T11:20:54.539Z,736.88
2023-04-22T11:21:54.521Z,748.12
2023-04-22T11:22:54.521Z,736.88
2023-04-22T11:23:55.506Z,736.88
2023-04-22T11:24:54.483Z,691.88
2023-04-22T11:25:54.457Z,669.38
2023-04-22T11:26:54.580Z,669.38
2023-04-22T11:27:54.443Z,663.75
2023-04-22T11:28:54.452Z,669.38
2023-04-22T11:29:54.418Z,663.75
2023-04-22T11:30:54.396Z,658.12
2023-04-22T11:31:54.456Z,663.75
2023-04-22T11:32:54.433Z,646.88
2023-04-22T11:33:54.397Z,669.38
2023-04-22T11:34:54.383Z,652.50
2023-04-22T11:35:54.379Z,652.50
2023-04-22T11:36:54.422Z,652.50
2023-04-22T11:37:54.350Z,652.50
2023-04-22T11:38:54.349Z,658.12
2023-04-22T11:40:16.858Z,669.38
2023-04-22T11:40:56.324Z,675.00
2023-04-22T11:41:54.306Z,680.62
2023-04-22T11:42:54.303Z,686.25
2023-04-22T11:43:54.321Z,686.25
2023-04-22T11:44:54.295Z,708.75
2023-04-22T11:45:54.328Z,714.38
2023-04-22T11:46:54.285Z,725.62
2023-04-22T11:47:54.267Z,742.50
2023-04-22T11:48:54.235Z,753.75
2023-04-22T11:49:54.222Z,770.62
2023-04-22T11:50:54.229Z,770.62
2023-04-22T11:51:54.212Z,781.88
2023-04-22T11:52:54.195Z,787.50
2023-04-22T11:53:54.196Z,793.12
2023-04-22T11:54:54.179Z,798.75
2023-04-22T11:55:54.189Z,810.00
2023-04-22T11:56:54.197Z,832.50
2023-04-22T11:57:54.160Z,821.25
2023-04-22T11:58:54.156Z,826.88
2023-04-22T11:59:54.122Z,832.50
2023-04-22T12:00:54.132Z,826.88
2023-04-22T12:01:54.162Z,826.88
2023-04-22T12:02:54.247Z,832.50
2023-04-22T12:03:54.173Z,826.88
2023-04-22T12:04:54.121Z,821.25
2023-04-22T12:05:54.081Z,821.25
2023-04-22T12:06:54.081Z,815.62
2023-04-22T12:07:54.068Z,810.00
2023-04-22T12:08:54.071Z,804.38
2023-04-22T12:09:54.018Z,793.12
2023-04-22T12:10:54.027Z,787.50
2023-04-22T12:11:54.050Z,781.88
2023-04-22T12:12:54.005Z,776.25
2023-04-22T12:13:54.069Z,770.62
2023-04-22T12:14:53.995Z,765.00
2023-04-22T12:15:54.001Z,765.00
2023-04-22T12:16:54.094Z,765.00
2023-04-22T12:17:53.985Z,765.00
2023-04-22T12:18:53.971Z,765.00
2023-04-22T12:19:53.923Z,765.00
2023-04-22T12:20:53.929Z,765.00
2023-04-22T12:21:53.914Z,765.00
2023-04-22T12:22:53.961Z,765.00
2023-04-22T12:23:53.913Z,770.62
2023-04-22T12:24:53.887Z,776.25
2023-04-22T12:25:53.885Z,787.50
2023-04-22T12:26:53.875Z,793.12
2023-04-22T12:27:53.876Z,810.00
2023-04-22T12:28:53.880Z,793.12
2023-04-22T12:29:53.837Z,793.12
2023-04-22T12:30:53.844Z,787.50
2023-04-22T12:31:53.829Z,776.25
2023-04-22T12:32:53.821Z,765.00
2023-04-22T12:33:53.929Z,765.00
2023-04-22T12:34:53.790Z,759.38
2023-04-22T12:35:53.794Z,742.50